Time;durP1;ratioP1;P1;durP2;ratioP2;P2;SDS_P1;SDS_P2;PMS_P1;PMS_P2;Temp;Humidity;BMP_temperature;BMP_pressure;BME280_temperature;BME280_humidity;BME280_pressure;Samples;Min_cycle;Max_cycle;Signal;HPM_P1;HPM_P2
2021/03/13 00:01:10;;;;;;;0.83;0.40;;;6.50;99.90;;;;;;5010849;28;20172;-68
2021/03/13 00:03:36;;;;;;;0.60;0.40;;;6.40;99.90;;;;;;5012252;28;20415;-67
2021/03/13 00:06:02;;;;;;;0.90;0.50;;;6.40;99.90;;;;;;5013533;28;20470;-69
2021/03/13 00:08:28;;;;;;;0.30;0.30;;;6.30;99.90;;;;;;5012368;28;20419;-67
2021/03/13 00:10:53;;;;;;;1.50;0.60;;;6.30;99.90;;;;;;5012237;28;20247;-68
2021/03/13 00:13:19;;;;;;;0.83;0.50;;;6.20;99.90;;;;;;5012179;28;20180;-67
2021/03/13 00:15:45;;;;;;;0.63;0.30;;;6.20;99.90;;;;;;5012104;28;20204;-68
2021/03/13 00:18:12;;;;;;;1.60;0.50;;;6.10;99.90;;;;;;5007726;28;20630;-66
2021/03/13 00:20:39;;;;;;;2.47;0.50;;;6.10;99.90;;;;;;5012070;28;20671;-68
2021/03/13 00:23:06;;;;;;;0.50;0.30;;;6.10;99.90;;;;;;5012265;28;20416;-67
2021/03/13 00:25:33;;;;;;;1.23;0.40;;;6.10;99.90;;;;;;5009341;28;20466;-68
2021/03/13 00:27:59;;;;;;;1.40;0.70;;;6.00;99.90;;;;;;5012065;28;20494;-67
2021/03/13 00:30:30;;;;;;;3.37;0.60;;;6.00;99.90;;;;;;5011844;28;20451;-67
2021/03/13 00:33:06;;;;;;;1.57;0.60;;;6.10;99.90;;;;;;4994701;28;20186;-65
2021/03/13 00:35:32;;;;;;;1.30;0.70;;;6.00;99.90;;;;;;4994388;28;20422;-67
2021/03/13 00:37:59;;;;;;;2.23;0.70;;;6.00;99.90;;;;;;5011123;28;20411;-67
2021/03/13 00:40:27;;;;;;;0.93;0.40;;;6.10;99.90;;;;;;5006038;28;20878;-69
2021/03/13 00:42:53;;;;;;;1.50;0.50;;;6.10;99.90;;;;;;4986720;28;20925;-68
2021/03/13 00:45:21;;;;;;;2.20;0.43;;;6.20;99.90;;;;;;5011959;28;20454;-69
2021/03/13 00:47:48;;;;;;;3.10;1.33;;;6.20;99.90;;;;;;5011713;28;20408;-68
2021/03/13 00:50:15;;;;;;;1.23;0.60;;;6.20;99.90;;;;;;5011879;28;20850;-67
2021/03/13 00:52:41;;;;;;;0.83;0.57;;;6.30;99.90;;;;;;5011432;28;20407;-68
2021/03/13 00:55:09;;;;;;;0.77;0.50;;;6.20;99.90;;;;;;5011630;28;20415;-68
2021/03/13 00:57:35;;;;;;;1.20;0.40;;;6.30;99.90;;;;;;5011353;28;20786;-68
2021/03/13 01:00:01;;;;;;;1.27;0.83;;;6.30;99.90;;;;;;5011507;28;20415;-68
2021/03/13 01:02:27;;;;;;;1.90;0.70;;;6.20;99.90;;;;;;5011587;28;20176;-68
2021/03/13 01:04:53;;;;;;;0.93;0.70;;;6.30;99.90;;;;;;5011674;28;20453;-68
2021/03/13 01:07:18;;;;;;;1.67;0.70;;;6.30;99.90;;;;;;5011548;28;20251;-69
2021/03/13 01:09:44;;;;;;;1.20;0.60;;;6.30;99.90;;;;;;5011020;28;20183;-68
2021/03/13 01:12:10;;;;;;;0.57;0.40;;;6.20;99.90;;;;;;5010772;28;20172;-68
2021/03/13 01:14:35;;;;;;;1.17;0.73;;;6.30;99.90;;;;;;5011231;28;20179;-69
2021/03/13 01:17:01;;;;;;;1.47;0.60;;;6.30;99.90;;;;;;5011260;28;20176;-69
2021/03/13 01:19:27;;;;;;;2.40;0.90;;;6.30;99.90;;;;;;5011583;28;20248;-69
2021/03/13 01:21:52;;;;;;;2.27;0.70;;;6.30;99.90;;;;;;5011154;28;20638;-69
2021/03/13 01:24:18;;;;;;;0.80;0.63;;;6.40;99.90;;;;;;5011047;28;20176;-68
2021/03/13 01:26:44;;;;;;;2.43;0.73;;;6.40;99.90;;;;;;5011101;28;20662;-69
2021/03/13 01:29:09;;;;;;;3.07;0.93;;;6.40;99.90;;;;;;5010986;28;20646;-68
2021/03/13 01:31:35;;;;;;;1.27;0.80;;;6.40;99.90;;;;;;5011332;28;20188;-68
2021/03/13 01:34:01;;;;;;;1.60;1.00;;;6.40;99.90;;;;;;5011003;28;20514;-69
2021/03/13 01:36:27;;;;;;;0.57;0.43;;;6.40;99.90;;;;;;4993448;28;20429;-67
2021/03/13 01:38:52;;;;;;;1.53;0.83;;;6.40;99.90;;;;;;5010931;28;20180;-68
2021/03/13 01:41:19;;;;;;;3.03;0.80;;;6.40;99.90;;;;;;5011069;28;20180;-68
2021/03/13 01:43:45;;;;;;;1.00;0.80;;;6.40;99.90;;;;;;5011095;28;20227;-68
2021/03/13 01:46:11;;;;;;;1.43;0.97;;;6.40;99.90;;;;;;5010911;28;20960;-68
2021/03/13 01:48:41;;;;;;;1.60;0.90;;;6.50;99.90;;;;;;5010972;28;20164;-68
2021/03/13 01:51:07;;;;;;;2.77;0.97;;;6.50;99.90;;;;;;5011113;28;20411;-68
2021/03/13 01:53:33;;;;;;;1.53;0.90;;;6.50;99.90;;;;;;5010890;28;20890;-68
2021/03/13 01:55:59;;;;;;;1.67;0.67;;;6.50;99.90;;;;;;5011245;28;20531;-68
2021/03/13 01:58:25;;;;;;;2.67;0.77;;;6.50;99.90;;;;;;5010674;28;20433;-69
2021/03/13 02:00:50;;;;;;;2.93;0.60;;;6.50;99.90;;;;;;5011162;28;20238;-68
2021/03/13 02:03:16;;;;;;;1.80;0.70;;;6.50;99.90;;;;;;5010860;28;20423;-68
2021/03/13 02:05:44;;;;;;;2.60;0.90;;;6.50;99.90;;;;;;5004215;28;20221;-69
2021/03/13 02:08:20;;;;;;;3.27;0.83;;;6.50;99.90;;;;;;4991294;28;20232;-69
2021/03/13 02:11:11;;;;;;;3.70;0.87;;;6.60;99.90;;;;;;4973556;28;20503;-69
2021/03/13 02:13:49;;;;;;;2.20;0.63;;;6.60;99.90;;;;;;4991333;28;20949;-68
2021/03/13 02:16:20;;;;;;;0.90;0.60;;;6.60;99.90;;;;;;4991288;28;20416;-68
2021/03/13 02:19:14;;;;;;;2.40;1.03;;;6.70;99.90;;;;;;4991213;28;20424;-69
2021/03/13 02:21:48;;;;;;;2.47;0.80;;;6.70;99.90;;;;;;5006276;28;20411;-69
2021/03/13 02:24:52;;;;;;;1.90;0.63;;;6.70;99.90;;;;;;4994990;28;20415;-69
2021/03/13 02:27:25;;;;;;;1.07;0.77;;;6.70;99.90;;;;;;4994641;28;20535;-68
2021/03/13 02:30:00;;;;;;;1.60;1.03;;;6.80;99.90;;;;;;4996172;28;20925;-68
2021/03/13 02:32:57;;;;;;;1.53;0.50;;;6.80;99.90;;;;;;5014000;28;20413;-68
2021/03/13 02:35:30;;;;;;;3.80;0.87;;;6.80;99.90;;;;;;4994363;28;20424;-68
2021/03/13 02:38:02;;;;;;;1.33;0.60;;;6.80;99.90;;;;;;5007704;28;20510;-69
2021/03/13 02:40:29;;;;;;;1.33;0.70;;;6.90;99.90;;;;;;4994399;28;20430;-69
2021/03/13 02:43:01;;;;;;;3.20;0.90;;;6.80;99.90;;;;;;4996756;28;20469;-69
2021/03/13 02:45:30;;;;;;;2.00;1.03;;;6.80;99.90;;;;;;4994255;28;20451;-68
2021/03/13 02:47:57;;;;;;;4.93;1.10;;;6.80;99.90;;;;;;4976596;28;20420;-68
2021/03/13 02:50:25;;;;;;;2.80;1.30;;;6.80;99.90;;;;;;5012382;28;20474;-68
2021/03/13 02:52:52;;;;;;;1.80;0.77;;;6.80;99.90;;;;;;4998588;28;20898;-69
2021/03/13 02:55:19;;;;;;;3.50;1.30;;;6.90;99.90;;;;;;4993030;28;20928;-69
2021/03/13 02:57:47;;;;;;;3.80;1.00;;;6.90;99.90;;;;;;4994231;28;20412;-69
2021/03/13 03:00:15;;;;;;;3.50;1.40;;;6.90;99.90;;;;;;4999843;28;20427;-68
2021/03/13 03:02:42;;;;;;;2.70;0.80;;;6.90;99.90;;;;;;5013634;28;20411;-69
2021/03/13 03:05:09;;;;;;;2.43;0.70;;;6.90;99.90;;;;;;5014487;28;20434;-68
2021/03/13 03:07:35;;;;;;;1.67;0.60;;;6.80;99.90;;;;;;5013517;28;20465;-68
2021/03/13 03:10:04;;;;;;;0.87;0.50;;;6.60;99.90;;;;;;5013735;28;20403;-68
2021/03/13 03:12:30;;;;;;;2.20;0.60;;;6.60;99.90;;;;;;5013262;28;20416;-68
2021/03/13 03:14:57;;;;;;;3.50;0.60;;;6.50;99.90;;;;;;5013335;28;20419;-69
2021/03/13 03:17:26;;;;;;;1.43;0.50;;;6.60;99.90;;;;;;5013090;28;20753;-69
2021/03/13 03:19:54;;;;;;;2.10;0.70;;;6.60;99.90;;;;;;5013236;28;20462;-66
2021/03/13 03:22:20;;;;;;;1.40;0.60;;;6.60;99.90;;;;;;5012926;28;20412;-67
2021/03/13 03:24:46;;;;;;;3.03;0.80;;;6.60;99.90;;;;;;5013147;28;20422;-68
2021/03/13 03:27:12;;;;;;;3.27;0.70;;;6.60;99.90;;;;;;5012926;28;20455;-68
2021/03/13 03:29:38;;;;;;;4.80;0.60;;;6.60;99.90;;;;;;5012773;28;20900;-67
2021/03/13 03:32:04;;;;;;;3.73;0.57;;;6.70;99.90;;;;;;5010554;28;20236;-68
2021/03/13 03:34:30;;;;;;;3.07;0.70;;;6.70;99.90;;;;;;5012316;28;20624;-67
2021/03/13 03:36:56;;;;;;;3.80;0.80;;;6.80;99.90;;;;;;5013090;28;20522;-67
2021/03/13 03:39:22;;;;;;;3.83;1.00;;;6.80;99.90;;;;;;5013061;28;20187;-68
2021/03/13 03:41:52;;;;;;;5.87;1.10;;;6.90;99.90;;;;;;5012654;28;20207;-68
2021/03/13 03:44:25;;;;;;;4.23;1.20;;;7.00;99.90;;;;;;4995290;28;20188;-69
2021/03/13 03:46:55;;;;;;;2.47;0.60;;;7.00;99.90;;;;;;5012152;28;20443;-67
2021/03/13 03:49:21;;;;;;;5.50;1.03;;;7.60;99.90;;;;;;5012542;28;20407;-68
2021/03/13 03:51:56;;;;;;;1.17;0.70;;;7.20;99.90;;;;;;5012288;28;20459;-67
2021/03/13 03:54:22;;;;;;;6.70;1.00;;;7.30;99.90;;;;;;5011777;28;20490;-67
2021/03/13 03:56:50;;;;;;;6.50;1.10;;;7.30;99.90;;;;;;5012421;28;20458;-66
2021/03/13 03:59:18;;;;;;;4.67;1.20;;;7.20;99.90;;;;;;5012658;28;20423;-67
2021/03/13 04:01:48;;;;;;;10.37;1.57;;;7.30;99.90;;;;;;5012262;28;20798;-67
2021/03/13 04:04:15;;;;;;;5.17;0.77;;;7.30;99.90;;;;;;5012497;28;20796;-68
2021/03/13 04:06:49;;;;;;;1.80;0.83;;;7.40;99.90;;;;;;5023350;28;20481;-67
2021/03/13 04:09:17;;;;;;;5.43;1.30;;;7.40;99.90;;;;;;5029022;28;20485;-67
2021/03/13 04:11:44;;;;;;;2.47;0.97;;;7.40;99.90;;;;;;5012997;28;20952;-67
2021/03/13 04:14:16;;;;;;;6.13;0.93;;;7.40;99.90;;;;;;5012177;28;20412;-67
2021/03/13 04:16:42;;;;;;;6.23;1.40;;;7.40;99.90;;;;;;5029132;28;20423;-68
2021/03/13 04:19:09;;;;;;;3.67;1.00;;;7.40;99.90;;;;;;5014260;28;20541;-67
2021/03/13 04:21:35;;;;;;;5.80;1.10;;;7.50;99.90;;;;;;5011970;28;20472;-68
2021/03/13 04:24:00;;;;;;;5.40;1.03;;;7.50;99.90;;;;;;5030722;28;20419;-68
2021/03/13 04:26:29;;;;;;;6.80;1.10;;;7.50;99.90;;;;;;5015082;28;20199;-67
2021/03/13 04:28:55;;;;;;;5.90;1.10;;;9.50;99.90;;;;;;5031120;28;20661;-67
2021/03/13 04:31:28;;;;;;;4.07;0.93;;;7.50;99.90;;;;;;5031174;28;20419;-68
2021/03/13 04:33:56;;;;;;;3.03;1.00;;;7.40;99.90;;;;;;5030318;28;20172;-68
2021/03/13 04:36:25;;;;;;;2.93;1.00;;;7.40;99.90;;;;;;5031345;28;20434;-67
2021/03/13 04:38:52;;;;;;;5.30;1.10;;;7.40;99.90;;;;;;5022203;28;20477;-68
2021/03/13 04:41:18;;;;;;;5.50;1.10;;;7.40;99.90;;;;;;5030992;28;20437;-68
2021/03/13 04:43:44;;;;;;;3.37;1.30;;;7.50;99.90;;;;;;5031685;28;20476;-67
2021/03/13 04:46:10;;;;;;;2.53;0.83;;;7.70;99.90;;;;;;5030313;28;20528;-67
2021/03/13 04:48:37;;;;;;;2.23;0.70;;;7.60;99.90;;;;;;5031482;28;20754;-67
2021/03/13 04:51:06;;;;;;;3.80;0.87;;;7.50;99.90;;;;;;5016047;28;20490;-69
2021/03/13 04:53:32;;;;;;;2.87;0.60;;;7.50;99.90;;;;;;5011361;28;20426;-69
2021/03/13 04:55:58;;;;;;;1.87;0.40;;;7.50;99.90;;;;;;5016022;28;20421;-67
2021/03/13 04:58:24;;;;;;;1.33;0.83;;;7.50;99.90;;;;;;5022708;28;20891;-67
2021/03/13 05:00:51;;;;;;;4.23;0.70;;;7.50;99.90;;;;;;5021568;28;20176;-67
2021/03/13 05:03:17;;;;;;;2.70;1.10;;;7.40;99.90;;;;;;5024587;28;20172;-68
2021/03/13 05:05:49;;;;;;;3.47;0.90;;;7.50;99.90;;;;;;5017410;28;20472;-67
2021/03/13 05:08:15;;;;;;;1.00;0.50;;;7.50;99.90;;;;;;5031189;28;20250;-67
2021/03/13 05:10:40;;;;;;;2.83;1.03;;;7.50;99.90;;;;;;5020556;28;20794;-68
2021/03/13 05:13:06;;;;;;;2.20;0.93;;;7.50;99.90;;;;;;5029203;28;20175;-67
2021/03/13 05:15:32;;;;;;;3.60;1.10;;;7.50;99.90;;;;;;5030509;28;20218;-67
2021/03/13 05:17:57;;;;;;;7.27;0.83;;;7.50;99.90;;;;;;5016350;28;20211;-68
2021/03/13 05:20:23;;;;;;;4.37;0.70;;;7.50;99.90;;;;;;5011212;28;20214;-67
2021/03/13 05:22:50;;;;;;;2.07;0.53;;;7.50;99.90;;;;;;5029435;28;20191;-68
2021/03/13 05:25:16;;;;;;;2.80;0.50;;;7.50;99.90;;;;;;5025491;28;20539;-68
2021/03/13 05:27:42;;;;;;;5.17;1.50;;;7.50;99.90;;;;;;5019975;28;20407;-67
2021/03/13 05:30:09;;;;;;;5.90;0.73;;;7.50;99.90;;;;;;5012088;28;20419;-67
2021/03/13 05:32:35;;;;;;;3.83;0.63;;;7.50;99.90;;;;;;5022323;28;20737;-67
2021/03/13 05:35:02;;;;;;;3.70;1.00;;;7.50;99.90;;;;;;5030742;28;20514;-68
2021/03/13 05:37:29;;;;;;;5.67;1.00;;;7.50;99.90;;;;;;5030120;28;20411;-67
2021/03/13 05:39:55;;;;;;;1.90;0.40;;;7.50;99.90;;;;;;5028642;28;20414;-68
2021/03/13 05:42:21;;;;;;;1.70;0.70;;;7.50;99.90;;;;;;5023223;28;20462;-67
2021/03/13 05:44:47;;;;;;;2.80;0.90;;;7.50;99.90;;;;;;5013420;28;20177;-68
2021/03/13 05:47:14;;;;;;;4.23;0.90;;;7.50;99.90;;;;;;5019160;28;20450;-67
2021/03/13 05:49:43;;;;;;;3.80;0.90;;;7.50;99.90;;;;;;5011269;28;20446;-68
2021/03/13 05:52:10;;;;;;;3.50;0.67;;;7.50;99.90;;;;;;5011254;28;20419;-67
2021/03/13 05:54:36;;;;;;;2.23;0.63;;;7.50;99.90;;;;;;5011153;28;20431;-67
2021/03/13 05:57:10;;;;;;;4.57;0.93;;;7.50;99.90;;;;;;5011529;28;20462;-67
2021/03/13 05:59:37;;;;;;;2.63;1.00;;;7.50;99.90;;;;;;5033513;28;20500;-68
2021/03/13 06:02:04;;;;;;;2.40;0.70;;;7.50;99.90;;;;;;5016168;28;20596;-67
2021/03/13 06:04:29;;;;;;;3.37;0.97;;;7.60;99.90;;;;;;5034345;28;20418;-68
2021/03/13 06:06:56;;;;;;;3.53;0.90;;;7.60;99.90;;;;;;5034181;28;20975;-65
2021/03/13 06:09:21;;;;;;;5.93;0.83;;;7.70;99.90;;;;;;5034278;28;20749;-67
2021/03/13 06:11:47;;;;;;;3.30;0.80;;;7.70;99.90;;;;;;5034389;28;20453;-66
2021/03/13 06:14:13;;;;;;;5.53;1.10;;;7.70;99.90;;;;;;5033885;28;20517;-67
2021/03/13 06:16:38;;;;;;;1.33;0.60;;;7.60;99.90;;;;;;5034102;28;20238;-67
2021/03/13 06:19:04;;;;;;;1.17;0.87;;;7.60;99.90;;;;;;5033802;28;20191;-66
2021/03/13 06:21:31;;;;;;;2.33;0.60;;;7.70;99.90;;;;;;5034046;28;20190;-66
2021/03/13 06:24:24;;;;;;;4.60;1.13;;;7.70;99.90;;;;;;5033951;28;20194;-67
2021/03/13 06:27:02;;;;;;;1.83;0.80;;;7.70;99.90;;;;;;5026977;28;20482;-67
2021/03/13 06:29:29;;;;;;;2.53;1.00;;;7.80;99.90;;;;;;5014135;28;20408;-67
2021/03/13 06:32:04;;;;;;;3.70;0.60;;;7.80;99.90;;;;;;5014298;28;20762;-66
2021/03/13 06:34:30;;;;;;;1.60;0.60;;;7.90;99.90;;;;;;5020580;28;20790;-67
2021/03/13 06:37:25;;;;;;;3.90;0.83;;;8.00;99.90;;;;;;5033704;28;20489;-67
2021/03/13 06:39:52;;;;;;;5.80;0.90;;;7.90;99.90;;;;;;5014079;28;20173;-66
2021/03/13 06:42:29;;;;;;;1.07;0.47;;;8.00;99.90;;;;;;5013853;28;20791;-67
2021/03/13 06:45:06;;;;;;;4.77;0.70;;;8.10;99.90;;;;;;5013997;28;20764;-66
2021/03/13 06:47:37;;;;;;;4.23;0.90;;;8.10;99.90;;;;;;5024807;28;20455;-66
2021/03/13 06:50:12;;;;;;;1.83;0.87;;;8.10;99.90;;;;;;5014038;28;20491;-67
2021/03/13 06:52:42;;;;;;;3.60;0.70;;;8.20;99.90;;;;;;5013625;28;20422;-65
2021/03/13 06:55:14;;;;;;;4.37;0.90;;;8.10;99.90;;;;;;5014655;28;20422;-67
2021/03/13 06:57:40;;;;;;;5.20;1.53;;;8.20;99.90;;;;;;5033674;28;20418;-67
2021/03/13 07:00:06;;;;;;;2.20;0.63;;;8.30;99.90;;;;;;5033326;28;20442;-67
2021/03/13 07:02:32;;;;;;;4.20;1.20;;;8.30;99.90;;;;;;5033346;28;20665;-68
2021/03/13 07:05:08;;;;;;;3.33;0.80;;;8.40;99.90;;;;;;5031380;28;20410;-68
2021/03/13 07:07:34;;;;;;;4.47;1.20;;;8.40;99.90;;;;;;5013903;28;20234;-68
2021/03/13 07:10:05;;;;;;;3.83;1.17;;;8.50;99.90;;;;;;5012499;28;20419;-68
2021/03/13 07:12:35;;;;;;;3.00;0.83;;;8.40;99.90;;;;;;5013406;28;20732;-68
2021/03/13 07:15:22;;;;;;;3.27;0.77;;;8.50;99.90;;;;;;5013449;28;20466;-67
2021/03/13 07:18:00;;;;;;;2.47;0.87;;;8.70;99.90;;;;;;5013355;28;20423;-69
2021/03/13 07:20:31;;;;;;;3.47;0.90;;;8.80;99.90;;;;;;5012868;28;20399;-69
2021/03/13 07:22:59;;;;;;;2.97;0.60;;;8.80;99.90;;;;;;5013163;28;20489;-66
2021/03/13 07:25:27;;;;;;;3.83;0.97;;;8.90;99.90;;;;;;5012872;28;20465;-67
2021/03/13 07:27:57;;;;;;;4.17;0.80;;;9.00;99.90;;;;;;5010705;28;20411;-68
2021/03/13 07:30:25;;;;;;;2.60;0.43;;;9.10;99.90;;;;;;5011909;28;20484;-68
2021/03/13 07:32:55;;;;;;;0.90;0.70;;;9.10;99.90;;;;;;5012675;28;20438;-66
2021/03/13 07:35:24;;;;;;;1.63;0.40;;;9.20;99.90;;;;;;5011286;28;20416;-68
2021/03/13 07:37:56;;;;;;;3.70;0.80;;;9.20;99.90;;;;;;5012214;28;20754;-67
2021/03/13 07:40:23;;;;;;;2.57;0.90;;;9.20;99.90;;;;;;5012231;28;20526;-68
2021/03/13 07:42:50;;;;;;;4.50;1.10;;;9.10;99.90;;;;;;5012258;28;20459;-68
2021/03/13 07:45:18;;;;;;;2.40;0.53;;;9.00;99.90;;;;;;5012259;28;20780;-66
2021/03/13 07:47:44;;;;;;;3.33;0.80;;;9.00;99.90;;;;;;5011866;28;20426;-67
2021/03/13 07:50:12;;;;;;;4.20;0.90;;;9.00;99.90;;;;;;5011873;28;20515;-68
2021/03/13 07:52:39;;;;;;;4.67;0.50;;;9.00;99.90;;;;;;5011777;28;20422;-67
2021/03/13 07:55:15;;;;;;;2.37;1.03;;;9.10;99.90;;;;;;5011881;28;20545;-68
2021/03/13 07:57:45;;;;;;;2.90;0.63;;;9.00;99.90;;;;;;5011829;28;20431;-68
2021/03/13 08:00:12;;;;;;;3.40;0.80;;;9.00;99.90;;;;;;5011865;28;20428;-67
2021/03/13 08:02:39;;;;;;;4.80;1.00;;;9.00;99.90;;;;;;5010351;28;20431;-67
2021/03/13 08:05:15;;;;;;;2.37;0.83;;;9.00;99.90;;;;;;5011987;28;20787;-68
2021/03/13 08:07:57;;;;;;;2.53;0.50;;;9.00;99.90;;;;;;5031094;28;21171;-67
2021/03/13 08:10:50;;;;;;;2.87;0.67;;;9.10;99.90;;;;;;5031259;28;20422;-67
2021/03/13 08:13:28;;;;;;;2.37;0.67;;;9.00;99.90;;;;;;5031259;28;20484;-66
2021/03/13 08:16:05;;;;;;;1.10;0.63;;;9.00;99.90;;;;;;5030957;28;20406;-68
2021/03/13 08:18:41;;;;;;;3.03;0.77;;;9.00;99.90;;;;;;5031061;28;20923;-67
2021/03/13 08:21:27;;;;;;;1.37;0.67;;;9.00;99.90;;;;;;5030514;28;20406;-67
2021/03/13 08:23:57;;;;;;;2.67;0.63;;;9.00;99.90;;;;;;5013655;28;20418;-66
2021/03/13 08:26:33;;;;;;;2.20;0.50;;;8.90;99.90;;;;;;5030912;28;20854;-67
2021/03/13 08:29:00;;;;;;;1.50;0.70;;;9.00;99.90;;;;;;5013377;28;20418;-67
2021/03/13 08:31:25;;;;;;;1.90;0.43;;;8.90;99.90;;;;;;5030779;28;20510;-67
2021/03/13 08:33:59;;;;;;;2.07;0.60;;;8.90;99.90;;;;;;5020292;28;20501;-67
2021/03/13 08:36:30;;;;;;;2.70;0.50;;;9.20;99.90;;;;;;5011188;28;20179;-67
2021/03/13 08:39:01;;;;;;;3.33;0.80;;;9.00;99.90;;;;;;5029982;28;20415;-67
2021/03/13 08:41:42;;;;;;;0.87;0.30;;;9.00;99.90;;;;;;5013040;28;20982;-67
2021/03/13 08:44:11;;;;;;;1.63;0.50;;;9.10;99.90;;;;;;5010752;28;20763;-68
2021/03/13 08:46:52;;;;;;;2.30;1.03;;;9.20;99.90;;;;;;5007044;28;20798;-67
2021/03/13 08:49:22;;;;;;;2.27;0.80;;;9.30;99.90;;;;;;5030363;28;20912;-66
2021/03/13 08:51:48;;;;;;;1.33;0.27;;;9.30;99.90;;;;;;5030575;28;20418;-67
2021/03/13 08:54:37;;;;;;;3.73;0.63;;;9.30;99.90;;;;;;5029879;28;20931;-69
2021/03/13 08:57:15;;;;;;;2.03;0.60;;;9.30;99.90;;;;;;5030010;28;20638;-69
2021/03/13 08:59:43;;;;;;;2.30;0.87;;;9.30;99.90;;;;;;5030249;28;20418;-70
2021/03/13 09:02:18;;;;;;;0.43;0.30;;;9.30;99.90;;;;;;5030447;28;20920;-68
2021/03/13 09:04:50;;;;;;;2.33;0.73;;;9.20;99.90;;;;;;5030231;28;20425;-68
2021/03/13 09:07:21;;;;;;;1.37;0.50;;;9.20;99.90;;;;;;5016771;28;20463;-70
2021/03/13 09:09:47;;;;;;;0.40;0.40;;;9.20;99.90;;;;;;5010951;28;20403;-69
2021/03/13 09:12:15;;;;;;;1.00;0.57;;;9.20;99.90;;;;;;5010294;28;20823;-67
2021/03/13 09:14:52;;;;;;;1.23;0.60;;;9.10;99.90;;;;;;5010594;28;20426;-67
2021/03/13 09:17:22;;;;;;;2.33;0.80;;;9.10;99.90;;;;;;5010665;28;20835;-69
2021/03/13 09:19:49;;;;;;;3.10;1.00;;;9.20;99.90;;;;;;5010269;28;20453;-70
2021/03/13 09:22:23;;;;;;;3.73;0.50;;;9.50;99.90;;;;;;5010370;28;20435;-68
2021/03/13 09:25:00;;;;;;;2.20;0.73;;;9.10;99.90;;;;;;5010394;28;20431;-69
2021/03/13 09:27:31;;;;;;;2.00;0.67;;;9.00;99.90;;;;;;5010215;28;20457;-69
2021/03/13 09:29:59;;;;;;;1.07;0.53;;;8.90;99.90;;;;;;5009940;28;20408;-70
2021/03/13 09:32:26;;;;;;;3.93;0.87;;;8.70;99.90;;;;;;5012026;28;20415;-71
2021/03/13 09:34:55;;;;;;;2.67;0.60;;;8.60;99.90;;;;;;5014182;28;20814;-69
2021/03/13 09:37:26;;;;;;;2.27;0.87;;;8.60;99.90;;;;;;5014216;28;20425;-69
2021/03/13 09:40:13;;;;;;;2.33;1.30;;;8.60;99.90;;;;;;5013758;28;20920;-69
2021/03/13 09:42:40;;;;;;;3.20;0.70;;;8.50;99.90;;;;;;4996902;28;20427;-70
2021/03/13 09:45:21;;;;;;;0.53;0.50;;;8.50;99.90;;;;;;5014059;28;20423;-69
2021/03/13 09:47:59;;;;;;;3.77;1.00;;;8.50;99.90;;;;;;5014310;28;20502;-69
2021/03/13 09:50:32;;;;;;;1.23;0.57;;;8.40;99.90;;;;;;5014306;28;20414;-70
2021/03/13 09:53:00;;;;;;;5.57;1.10;;;8.40;99.90;;;;;;5013752;28;20431;-69
2021/03/13 09:55:28;;;;;;;3.80;0.57;;;8.40;99.90;;;;;;5013949;28;20439;-70
2021/03/13 09:57:56;;;;;;;2.23;0.80;;;8.40;99.90;;;;;;5014104;28;20419;-69
2021/03/13 10:00:32;;;;;;;2.47;0.60;;;8.50;99.90;;;;;;5013965;28;20462;-68
2021/03/13 10:03:00;;;;;;;2.40;0.80;;;8.50;99.90;;;;;;5013808;28;20423;-70
2021/03/13 10:05:28;;;;;;;4.73;0.63;;;8.50;99.90;;;;;;5012700;28;20959;-70
2021/03/13 10:07:54;;;;;;;1.60;0.53;;;8.70;99.90;;;;;;5014090;28;20458;-69
2021/03/13 10:10:25;;;;;;;2.47;0.97;;;8.70;99.90;;;;;;5013689;28;20430;-68
2021/03/13 10:12:55;;;;;;;1.37;0.37;;;8.70;99.90;;;;;;5013987;28;20218;-70
2021/03/13 10:15:25;;;;;;;1.60;0.43;;;8.80;99.90;;;;;;5014180;28;20889;-68
2021/03/13 10:18:06;;;;;;;3.07;0.80;;;8.90;99.90;;;;;;5013689;28;20914;-68
2021/03/13 10:20:50;;;;;;;3.57;0.50;;;8.90;99.90;;;;;;5013289;28;20411;-67
2021/03/13 10:23:31;;;;;;;1.27;0.60;;;9.00;99.90;;;;;;5015729;28;20473;-68
2021/03/13 10:26:00;;;;;;;0.97;0.30;;;9.10;99.90;;;;;;5033567;28;20524;-66
2021/03/13 10:28:29;;;;;;;2.63;0.90;;;9.00;99.90;;;;;;5015655;28;20474;-68
2021/03/13 10:31:09;;;;;;;1.80;0.33;;;8.90;99.90;;;;;;5032623;28;20422;-68
2021/03/13 10:33:36;;;;;;;1.13;0.50;;;9.00;99.90;;;;;;5033481;28;20410;-68
2021/03/13 10:36:02;;;;;;;5.57;0.97;;;9.00;99.90;;;;;;5027465;28;20420;-69
2021/03/13 10:38:28;;;;;;;2.47;0.70;;;9.00;99.90;;;;;;5013589;28;20423;-67
2021/03/13 10:41:06;;;;;;;1.83;0.50;;;9.00;99.90;;;;;;5013777;28;20645;-66
2021/03/13 10:43:39;;;;;;;0.60;0.50;;;9.10;99.90;;;;;;5032377;28;20179;-67
2021/03/13 10:46:06;;;;;;;4.77;0.70;;;9.20;99.90;;;;;;5033251;28;20601;-68
2021/03/13 10:48:38;;;;;;;1.57;0.47;;;9.20;99.90;;;;;;5033424;28;20415;-66
2021/03/13 10:51:04;;;;;;;4.93;0.70;;;9.30;99.90;;;;;;5033172;28;20410;-67
2021/03/13 10:53:40;;;;;;;1.07;0.50;;;9.30;99.90;;;;;;5015057;28;20426;-66
2021/03/13 10:56:11;;;;;;;1.70;0.43;;;9.30;99.90;;;;;;5033320;28;20182;-67
2021/03/13 10:58:38;;;;;;;1.93;0.50;;;9.30;99.90;;;;;;5015105;28;20422;-68
2021/03/13 11:01:06;;;;;;;0.50;0.30;;;9.20;99.90;;;;;;5032661;28;20506;-66
2021/03/13 11:03:33;;;;;;;1.07;0.50;;;9.20;99.90;;;;;;5033029;28;20707;-66
2021/03/13 11:05:59;;;;;;;0.50;0.47;;;9.30;99.90;;;;;;5031091;28;20446;-67
2021/03/13 11:08:26;;;;;;;1.33;0.40;;;9.40;99.90;;;;;;4993763;28;20408;-67
2021/03/13 11:10:53;;;;;;;1.40;0.70;;;9.30;99.90;;;;;;4993390;28;20503;-67
2021/03/13 11:13:19;;;;;;;1.13;0.50;;;9.30;99.90;;;;;;4993367;28;20409;-68
2021/03/13 11:15:45;;;;;;;0.83;0.30;;;9.30;99.90;;;;;;4993148;28;20416;-65
2021/03/13 11:18:11;;;;;;;1.57;0.40;;;9.30;99.90;;;;;;4975983;28;20473;-67
2021/03/13 11:20:38;;;;;;;1.80;0.60;;;9.30;99.90;;;;;;4993185;28;20408;-67
2021/03/13 11:23:04;;;;;;;1.83;0.60;;;9.20;99.90;;;;;;4993501;28;20184;-68
2021/03/13 11:25:29;;;;;;;0.77;0.40;;;9.20;99.90;;;;;;4993117;28;20478;-68
2021/03/13 11:27:55;;;;;;;0.70;0.30;;;9.20;99.90;;;;;;4993285;28;20417;-66
2021/03/13 11:30:22;;;;;;;2.03;0.50;;;9.10;99.90;;;;;;4992793;28;20181;-66
2021/03/13 11:32:47;;;;;;;1.53;0.60;;;9.10;99.90;;;;;;4993185;28;20538;-67
2021/03/13 11:35:14;;;;;;;1.80;0.53;;;8.90;99.90;;;;;;4992842;28;20424;-68
2021/03/13 11:37:40;;;;;;;0.80;0.30;;;8.70;99.90;;;;;;4992888;28;20657;-67
2021/03/13 11:40:08;;;;;;;1.17;0.60;;;8.20;99.90;;;;;;4992893;28;20925;-66
2021/03/13 11:42:34;;;;;;;0.67;0.30;;;7.80;99.90;;;;;;4992923;28;20530;-68
2021/03/13 11:45:00;;;;;;;0.83;0.40;;;7.60;99.90;;;;;;4992862;28;20457;-67
2021/03/13 11:47:27;;;;;;;1.03;0.70;;;7.50;99.90;;;;;;4992406;28;20204;-68
2021/03/13 11:49:53;;;;;;;0.70;0.60;;;7.40;99.90;;;;;;4992617;28;20420;-67
2021/03/13 11:52:19;;;;;;;2.10;0.90;;;7.30;99.90;;;;;;4992622;28;20895;-67
2021/03/13 11:54:49;;;;;;;2.33;1.00;;;7.40;99.90;;;;;;4992187;28;20416;-69
2021/03/13 11:57:16;;;;;;;1.10;0.90;;;7.50;99.90;;;;;;4992591;28;20177;-68
2021/03/13 11:59:47;;;;;;;1.20;0.70;;;7.40;99.90;;;;;;4992882;28;20455;-69
2021/03/13 12:02:14;;;;;;;0.20;0.20;;;7.40;99.90;;;;;;4992387;28;20522;-69
2021/03/13 12:04:40;;;;;;;0.50;0.50;;;7.30;99.90;;;;;;4992447;28;20523;-66
2021/03/13 12:07:06;;;;;;;0.40;0.33;;;7.10;99.90;;;;;;4999660;28;20553;-68
2021/03/13 12:09:32;;;;;;;0.80;0.30;;;6.80;99.90;;;;;;5012027;28;20176;-69
2021/03/13 12:12:00;;;;;;;2.70;1.70;;;6.50;99.90;;;;;;5013470;28;20408;-68
2021/03/13 12:14:28;;;;;;;0.37;0.37;;;6.40;99.90;;;;;;5031589;28;20419;-69
2021/03/13 12:16:54;;;;;;;1.27;0.70;;;6.30;99.90;;;;;;5031239;28;20973;-68
2021/03/13 12:19:20;;;;;;;1.80;0.50;;;6.30;99.90;;;;;;5015548;28;20419;-67
2021/03/13 12:21:46;;;;;;;1.90;0.80;;;6.40;99.90;;;;;;5011597;28;20661;-69
2021/03/13 12:24:13;;;;;;;0.60;0.40;;;6.40;99.90;;;;;;5011085;28;20222;-66
2021/03/13 12:26:38;;;;;;;1.63;0.60;;;6.40;99.90;;;;;;5011077;28;20469;-66
2021/03/13 12:29:04;;;;;;;1.23;0.50;;;6.40;99.90;;;;;;5010641;28;20570;-67
2021/03/13 12:31:30;;;;;;;3.67;0.90;;;6.50;99.90;;;;;;5029448;28;20183;-66
2021/03/13 12:33:56;;;;;;;0.97;0.87;;;6.40;99.90;;;;;;5030853;28;20969;-68
2021/03/13 12:36:22;;;;;;;3.33;0.80;;;6.40;99.90;;;;;;5030680;28;20180;-67
2021/03/13 12:38:47;;;;;;;1.63;0.80;;;6.40;99.90;;;;;;5030931;28;20812;-67
2021/03/13 12:41:13;;;;;;;4.83;0.77;;;6.50;99.90;;;;;;5030604;28;20672;-69
2021/03/13 12:43:39;;;;;;;3.13;1.10;;;6.50;99.90;;;;;;5012828;28;20176;-67
2021/03/13 12:46:05;;;;;;;8.87;3.43;;;6.50;99.90;;;;;;5023607;28;20480;-67
2021/03/13 12:48:31;;;;;;;11.00;6.73;;;6.60;99.90;;;;;;5030311;28;20533;-69
2021/03/13 12:50:57;;;;;;;7.87;4.33;;;6.50;99.90;;;;;;5030713;28;20615;-66
2021/03/13 12:53:23;;;;;;;1.13;0.90;;;6.60;99.90;;;;;;5030268;28;20425;-68
2021/03/13 12:55:49;;;;;;;6.90;2.10;;;6.60;99.90;;;;;;5030429;28;20791;-68
2021/03/13 12:58:14;;;;;;;0.87;0.50;;;6.60;99.90;;;;;;5012717;28;20191;-68
2021/03/13 13:00:41;;;;;;;4.57;1.27;;;6.70;99.90;;;;;;5030243;28;20598;-68
2021/03/13 13:03:08;;;;;;;5.43;1.47;;;6.80;99.90;;;;;;5030636;28;20217;-68
2021/03/13 13:05:34;;;;;;;3.57;1.40;;;6.90;99.90;;;;;;5030267;28;20804;-68
2021/03/13 13:07:59;;;;;;;6.27;1.00;;;7.00;99.90;;;;;;5029406;28;20462;-67